Latest Coastal Weather Observations for Roebourne Airport

IDW60701

Issued at 2:52 am WST Saturday 5 September 2015 (issued every 10 minutes, with the page automatically refreshed every 10 minutes)

About coastal observations | Map of coastal stations | Coastal observations for WA | Marine services | Other Formats
Station Details ID: 004090 Name: ROEBOURNE AERO Lat: -20.76 Lon: 117.16 Height: 10.7 m
Data from the previous 72 hours. | See also: Recent months at Roebourne Airport
Date/Time
WST
Temp

°C
Wind Pressure Rain
since 9am
mm
Weather Cloud Vis
km
Sea
Height
m
Swell
Dir
 
Speed
knots
Gust
knots
hPa Trend Height
m
Period
s
Dir
05/02:30am 15.3 WNW 6 6 1017.0 - 0.0 - - - - - - -
05/02:00am 16.2 WNW 5 7 1017.0 - 0.0 - - - - - - -
05/01:30am 16.7 W 8 9 1017.3 - 0.0 - - - - - - -
05/01:00am 16.7 WNW 8 9 1017.5 - 0.0 - - - - - - -
05/12:30am 17.2 WNW 8 10 1017.7 - 0.0 - - - - - - -
05/12:00am 16.5 WNW 6 7 1017.9 - 0.0 - - - - - - -
 
Date/Time
WST
Temp

°C
Wind Pressure Rain
since 9am
mm
Weather Cloud Vis
km
Sea
Height
m
Swell
Dir
 
Speed
knots
Gust
knots
hPa Trend Height
m
Period
s
Dir
04/11:30pm 17.0 WNW 6 8 1018.1 - 0.0 - - - - - - -
04/11:00pm 18.1 WNW 9 11 1018.0 - 0.0 - - - - - - -
04/10:30pm 19.0 W 10 13 1017.9 - 0.0 - - - - - - -
04/10:00pm 19.7 W 11 14 1017.9 - 0.0 - - - - - - -
04/09:30pm 20.1 W 12 15 1017.9 - 0.0 - - - - - - -
04/09:00pm 20.3 W 11 14 1018.0 - 0.0 - - - - - - -
04/08:30pm 20.3 W 8 11 1018.0 - 0.0 - - - - - - -
04/08:00pm 20.5 W 9 11 1017.7 - 0.0 - - - - - - -
04/07:30pm 21.3 W 10 13 1017.2 - 0.0 - - - - - - -
04/07:00pm 22.0 WNW 10 14 1017.0 - 0.0 - - - - - - -
04/06:30pm 22.6 NW 11 13 1016.7 - 0.0 - - - - - - -
04/06:00pm 23.6 NW 13 15 1016.3 - 0.0 - - - - - - -
04/05:30pm 25.0 NW 12 16 1015.9 - 0.0 - - - - - - -
04/05:00pm 26.3 NW 13 17 1015.7 - 0.0 - - - - - - -
04/04:30pm 27.5 NW 14 17 1015.4 - 0.0 - - - - - - -
04/04:00pm 28.3 NW 15 18 1015.5 - 0.0 - - - - - - -
04/03:30pm 28.7 NW 14 17 1015.4 - 0.0 - - - - - - -
04/03:00pm 29.8 WNW 13 17 1015.5 - 0.0 - - - - - - -
04/02:30pm 30.0 NW 13 20 1015.6 - 0.0 - - - - - - -
04/02:00pm 30.0 NW 12 18 1015.9 - 0.0 - - - - - - -
04/01:30pm 30.2 WNW 11 16 1016.1 - 0.0 - - - - - - -
04/01:00pm 30.0 WNW 10 17 1016.2 - 0.0 - - - - - - -
04/12:30pm 30.1 WNW 7 11 1016.5 - 0.0 - - - - - - -
04/12:00pm 29.0 N 4 8 1017.0 - 0.0 - - - - - - -
04/11:30am 28.6 NW 6 9 1017.6 - 0.0 - - - - - - -
04/11:00am 27.6 SW 6 11 1018.0 - 0.0 - - - - - - -
04/10:30am 26.6 W 6 9 1018.2 - 0.0 - - - - - - -
04/10:00am 25.5 W 6 9 1018.5 - 0.0 - - - - - - -
04/09:30am 24.3 W 7 10 1018.5 - 0.0 - - - - - - -
04/09:00am 22.6 W 6 9 1018.4 - 0.0 - - - - - - -
04/08:30am 21.1 W 7 10 1018.4 - 0.0 - - - - - - -
04/08:00am 20.1 W 7 9 1018.1 - 0.0 - - - - - - -
04/07:30am 18.1 W 5 7 1017.7 - 0.0 - - - - - - -
04/07:00am 14.8 W 3 4 1017.4 - 0.0 - - - - - - -
04/06:30am 12.7 WSW 4 5 1017.3 - 0.0 - - - - - - -
04/06:00am 12.4 WSW 4 4 1016.9 - 0.0 - - - - - - -
04/05:30am 11.9 W 4 5 1016.7 - 0.0 - - - - - - -
04/05:00am 11.9 W 1 3 1016.6 - 0.0 - - - - - - -
04/04:30am 15.0 W 5 7 1016.4 - 0.0 - - - - - - -
04/04:00am 15.2 W 6 8 1016.4 - 0.0 - - - - - - -
04/03:30am 13.6 W 5 6 1016.5 - 0.0 - - - - - - -
04/03:00am 16.4 W 7 8 1016.6 - 0.0 - - - - - - -
04/02:30am 16.9 W 9 10 1016.7 - 0.0 - - - - - - -
04/02:00am 16.3 W 8 9 1016.9 - 0.0 - - - - - - -
04/01:30am 17.1 W 9 10 1017.0 - 0.0 - - - - - - -
04/01:00am 17.1 W 5 6 1017.2 - 0.0 - - - - - - -
04/12:30am 17.2 SSW 5 7 1017.4 - 0.0 - - - - - - -
04/12:00am 19.6 WSW 9 11 1017.6 - 0.0 - - - - - - -
 
Date/Time
WST
Temp

°C
Wind Pressure Rain
since 9am
mm
Weather Cloud Vis
km
Sea
Height
m
Swell
Dir
 
Speed
knots
Gust
knots
hPa Trend Height
m
Period
s
Dir
03/11:30pm 19.4 W 9 11 1017.9 - 0.0 - - - - - - -
03/11:00pm 18.5 W 6 7 1018.1 - 0.0 - - - - - - -
03/10:30pm 18.9 W 8 10 1018.1 - 0.0 - - - - - - -
03/10:00pm 19.3 W 8 9 1018.2 - 0.0 - - - - - - -
03/09:30pm 19.4 W 7 8 1018.3 - 0.0 - - - - - - -
03/09:00pm 20.4 W 8 10 1018.2 - 0.0 - - - - - - -
03/08:30pm 21.1 W 9 11 1018.1 - 0.0 - - - - - - -
03/08:00pm 21.2 W 7 9 1017.7 - 0.0 - - - - - - -
03/07:30pm 21.8 W 9 11 1017.5 - 0.0 - - - - - - -
03/07:00pm 22.3 WNW 8 9 1017.1 - 0.0 - - - - - - -
03/06:30pm 23.0 WNW 9 11 1016.9 - 0.0 - - - - - - -
03/06:00pm 23.9 NW 10 12 1016.5 - 0.0 - - - - - - -
03/05:30pm 25.1 NW 11 14 1016.4 - 0.0 - - - - - - -
03/05:00pm 26.4 NNW 11 14 1016.1 - 0.0 - - - - - - -
03/04:30pm 26.6 NNW 10 13 1016.1 - 0.0 - - - - - - -
03/04:00pm 27.6 N 11 14 1016.1 - 0.0 - - - - - - -
03/03:30pm 28.4 N 10 15 1015.9 - 0.0 - - - - - - -
03/03:00pm 29.2 N 11 16 1015.9 - 0.0 - - - - - - -
03/02:30pm 28.8 N 11 15 1016.1 - 0.0 - - - - - - -
03/02:00pm 28.4 N 11 15 1016.4 - 0.0 - - - - - - -
03/01:30pm 28.1 NNE 11 15 1016.7 - 0.0 - - - - - - -
03/01:00pm 28.8 NNE 11 16 1016.8 - 0.0 - - - - - - -
03/12:30pm 29.0 NE 11 16 1017.2 - 0.0 - - - - - - -
03/12:00pm 28.6 NE 13 18 1017.3 - 0.0 - - - - - - -
03/11:30am 29.0 ENE 13 18 1017.6 - 0.0 - - - - - - -
03/11:00am 27.3 ENE 9 14 1018.0 - 0.0 - - - - - - -
03/10:30am 26.9 ENE 11 14 1018.2 - 0.0 - - - - - - -
03/10:00am 26.1 E 9 12 1018.4 - 0.0 - - - - - - -
03/09:30am 25.3 ESE 10 13 1018.3 - 0.0 - - - - - - -
03/09:00am 24.0 ESE 9 12 1018.3 - 0.0 - - - - - - -
03/08:30am 22.4 ESE 8 9 1018.2 - 0.0 - - - - - - -
03/08:00am 20.4 E 5 7 1018.0 - 0.0 - - - - - - -
03/07:30am 17.8 E 3 4 1017.9 - 0.0 - - - - - - -
03/07:00am 14.3 E 5 6 1017.7 - 0.0 - - - - - - -
03/06:30am 12.1 SSE 3 4 1017.5 - 0.0 - - - - - - -
03/06:00am 12.3 CALM 0 4 1017.1 - 0.0 - - - - - - -
03/05:30am 12.9 CALM 0 0 1016.8 - 0.0 - - - - - - -
03/05:00am 13.1 SW 1 3 1016.4 - 0.0 - - - - - - -
03/04:30am 12.9 S 3 5 1016.3 - 0.0 - - - - - - -
03/04:00am 13.5 CALM 0 0 1016.3 - 0.0 - - - - - - -
03/03:30am 14.0 SW 3 4 1016.2 - 0.0 - - - - - - -
03/03:00am 14.2 SW 4 5 1016.4 - 0.0 - - - - - - -
03/02:30am 16.7 SW 5 6 1016.5 - 0.0 - - - - - - -
03/02:00am 16.4 SW 6 6 1016.7 - 0.0 - - - - - - -
03/01:30am 16.6 SW 7 8 1016.9 - 0.0 - - - - - - -
03/01:00am 16.6 SW 5 6 1017.1 - 0.0 - - - - - - -
03/12:30am 16.5 SW 6 7 1017.3 - 0.0 - - - - - - -
03/12:00am 16.6 SW 6 7 1017.5 - 0.0 - - - - - - -
 
Date/Time
WST
Temp

°C
Wind Pressure Rain
since 9am
mm
Weather Cloud Vis
km
Sea
Height
m
Swell
Dir
 
Speed
knots
Gust
knots
hPa Trend Height
m
Period
s
Dir
02/11:30pm 16.3 SW 5 6 1017.5 - 0.0 - - - - - - -
02/11:00pm 16.1 SW 5 6 1017.5 - 0.0 - - - - - - -
02/10:30pm 16.2 SW 3 4 1017.6 - 0.0 - - - - - - -
02/10:00pm 16.2 SSW 6 6 1017.8 - 0.0 - - - - - - -
02/09:30pm 16.4 NW 1 3 1017.8 - 0.0 - - - - - - -
02/09:00pm 18.3 WNW 4 4 1017.8 - 0.0 - - - - - - -
02/08:30pm 17.9 WSW 4 5 1017.7 - 0.0 - - - - - - -
02/08:00pm 19.9 NNW 5 6 1017.3 - 0.0 - - - - - - -
02/07:30pm 20.3 NNW 6 6 1017.0 - 0.0 - - - - - - -
02/07:00pm 21.2 NNW 6 7 1016.6 - 0.0 - - - - - - -
02/06:30pm 22.1 NNW 6 8 1016.3 - 0.0 - - - - - - -
02/06:00pm 23.8 N 10 13 1015.8 - 0.0 - - - - - - -
02/05:30pm 24.8 N 12 16 1015.6 - 0.0 - - - - - - -
02/05:00pm 25.8 N 14 17 1015.3 - 0.0 - - - - - - -
02/04:30pm 26.3 NNE 14 18 1014.9 - 0.0 - - - - - - -
02/04:00pm 26.6 NNE 13 16 1015.1 - 0.0 - - - - - - -
02/03:30pm 27.1 N 13 16 1015.2 - 0.0 - - - - - - -
02/03:00pm 27.4 NNE 12 15 1015.3 - 0.0 - - - - - - -
02/02:30pm 27.0 NNE 13 17 1015.3 - 0.0 - - - - - - -
02/02:00pm 27.9 NNE 12 16 1015.7 - 0.0 - - - - - - -
02/01:30pm 28.5 NE 13 17 1016.1 - 0.0 - - - - - - -
02/01:00pm 28.4 NE 15 23 1016.3 - 0.0 - - - - - - -
02/12:30pm 28.7 ENE 14 19 1016.5 - 0.0 - - - - - - -
02/12:00pm 28.0 ENE 14 19 1016.9 - 0.0 - - - - - - -
02/11:30am 27.6 ENE 14 19 1017.1 - 0.0 - - - - - - -
02/11:00am 27.4 E 15 23 1017.4 - 0.0 - - - - - - -
02/10:30am 26.7 E 16 24 1017.7 - 0.0 - - - - - - -
02/10:00am 26.2 E 16 22 1017.6 - 0.0 - - - - - - -
02/09:30am 25.2 E 17 23 1017.4 - 0.0 - - - - - - -
02/09:00am 24.2 ESE 17 22 1017.1 - 0.0 - - - - - - -
02/08:30am 22.8 ESE 19 25 1016.9 - 0.0 - - - - - - -
02/08:00am 21.7 ESE 16 21 1016.9 - 0.0 - - - - - - -
02/07:53am 21.0 E 13 21 1016.8 - 0.0 - - - - - - -
02/07:30am 18.3 E 6 9 1016.7 - 0.0 - - - - - - -
02/07:00am 14.8 E 3 4 1016.3 - 0.0 - - - - - - -
02/06:30am 12.9 SE 4 5 1015.9 - 0.0 - - - - - - -
02/06:00am 12.0 SE 4 5 1015.5 - 0.0 - - - - - - -
02/05:30am 12.4 S 6 7 1015.0 - 0.0 - - - - - - -
02/05:00am 12.5 SSW 7 8 1014.6 - 0.0 - - - - - - -
02/04:30am 11.7 SSW 5 6 1014.5 - 0.0 - - - - - - -
02/04:00am 12.7 SW 3 4 1014.4 - 0.0 - - - - - - -
02/03:30am 14.0 SW 4 4 1014.4 - 0.0 - - - - - - -
02/03:00am 13.7 CALM 0 0 1014.6 - 0.0 - - - - - - -

Other Formats:

Comma delimited format used in spreadsheet applications
http://www.bom.gov.au/fwo/IDW60701/IDW60701.94308.axf

JavaScript Object Notation format (JSON) in row-major order
http://www.bom.gov.au/fwo/IDW60701/IDW60701.94308.json